Time;durP1;ratioP1;P1;durP2;ratioP2;P2;SDS_P1;SDS_P2;PMS_P1;PMS_P2;Temp;Humidity;BMP_temperature;BMP_pressure;BME280_temperature;BME280_humidity;BME280_pressure;Samples;Min_cycle;Max_cycle;Signal;HPM_P1;HPM_P2
2021/12/13 05:30:23;;;;;;;;;14.75;13.00;;;;;11.79;74.80;102287.88;5929702;23;46291;-56
2021/12/13 05:32:55;;;;;;;;;14.25;13.00;;;;;11.81;74.33;102294.09;4960914;28;45397;-58
2021/12/13 05:35:24;;;;;;;;;11.50;9.25;;;;;11.82;74.43;102293.19;4960246;28;45626;-55
2021/12/13 05:37:54;;;;;;;;;11.00;10.00;;;;;11.77;74.22;102295.97;4960461;28;45456;-55
2021/12/13 05:40:24;;;;;;;;;10.75;10.75;;;;;11.74;74.29;102288.88;4957667;28;45266;-56
2021/12/13 05:42:59;;;;;;;;;11.75;11.50;;;;;11.74;74.23;102287.94;4941445;28;45500;-56
2021/12/13 05:45:38;;;;;;;;;12.75;8.75;;;;;11.69;74.12;102279.13;4940933;28;45363;-58
2021/12/13 05:48:12;;;;;;;;;11.25;8.00;;;;;11.73;74.36;102291.59;4941082;28;46224;-56
2021/12/13 05:50:48;;;;;;;;;11.50;10.00;;;;;11.73;74.38;102286.22;4941053;28;45326;-55
2021/12/13 05:53:20;;;;;;;;;15.00;11.00;;;;;11.74;74.28;102286.19;4941164;28;45303;-55
2021/12/13 05:55:58;;;;;;;;;11.75;11.75;;;;;11.70;74.26;102284.47;4941274;28;45276;-57
2021/12/13 05:58:55;;;;;;;;;10.00;10.00;;;;;11.68;73.85;102283.63;4940912;28;46150;-57
2021/12/13 06:01:31;;;;;;;;;14.50;9.25;;;;;11.67;74.14;102289.03;4936174;28;45588;-56
2021/12/13 06:04:05;;;;;;;;;12.75;9.25;;;;;11.67;74.06;102289.91;4941264;28;45394;-56
2021/12/13 06:06:34;;;;;;;;;12.75;12.50;;;;;11.64;74.20;102287.34;4940983;28;46310;-58
2021/12/13 06:09:00;;;;;;;;;11.75;10.00;;;;;11.64;74.30;102289.13;4941012;28;46390;-57
2021/12/13 06:11:32;;;;;;;;;15.50;10.00;;;;;11.62;73.93;102288.28;4940903;28;45312;-57
2021/12/13 06:14:06;;;;;;;;;13.75;8.75;;;;;11.57;73.83;102283.00;4941002;28;45178;-55
2021/12/13 06:16:31;;;;;;;;;11.75;11.25;;;;;11.61;74.35;102286.53;4935805;28;45441;-56
2021/12/13 06:19:11;;;;;;;;;11.25;10.25;;;;;11.63;73.55;102290.06;4940851;28;45500;-55
2021/12/13 06:22:07;;;;;;;;;18.25;14.75;;;;;11.62;74.07;102283.78;4939806;28;45374;-55
2021/12/13 06:24:39;;;;;;;;;12.50;11.00;;;;;11.62;73.54;102282.91;4940937;28;45259;-57
2021/12/13 06:27:16;;;;;;;;;10.00;10.00;;;;;11.56;73.80;102294.72;4940666;28;45477;-54
2021/12/13 06:29:54;;;;;;;;;12.25;11.50;;;;;11.57;73.69;102299.13;4940711;28;46208;-56
2021/12/13 06:32:39;;;;;;;;;13.75;12.75;;;;;11.59;73.52;102291.03;4940110;28;45509;-55
2021/12/13 06:35:41;;;;;;;;;14.25;12.00;;;;;11.56;73.58;102292.03;4940288;28;45292;-53
2021/12/13 06:38:18;;;;;;;;;16.00;12.50;;;;;11.52;73.82;102300.19;4940278;28;45557;-53
2021/12/13 06:40:50;;;;;;;;;13.50;12.25;;;;;11.51;73.58;102303.78;4940363;28;47223;-54
2021/12/13 06:43:58;;;;;;;;;12.25;12.25;;;;;11.45;73.31;102304.81;4932383;28;45683;-54
2021/12/13 06:46:23;;;;;;;;;12.75;12.75;;;;;11.38;73.57;102301.41;4938014;28;45717;-56
2021/12/13 06:48:59;;;;;;;;;12.25;11.75;;;;;11.41;73.84;102305.81;4938057;28;45647;-52
2021/12/13 06:51:46;;;;;;;;;14.75;12.00;;;;;11.41;73.75;102313.84;4937984;28;46062;-55
2021/12/13 06:54:26;;;;;;;;;17.50;11.75;;;;;11.43;73.79;102301.28;4938701;28;45679;-55
2021/12/13 06:56:56;;;;;;;;;15.25;11.50;;;;;11.49;73.77;102308.31;4938997;28;45335;-55
2021/12/13 06:59:23;;;;;;;;;10.25;10.00;;;;;11.53;73.64;102294.78;4938463;28;45409;-55
2021/12/13 07:01:59;;;;;;;;;11.50;10.50;;;;;11.57;73.67;102296.44;4936281;28;45359;-54
2021/12/13 07:04:25;;;;;;;;;13.25;11.00;;;;;11.62;73.78;102299.03;4938053;28;45396;-56
2021/12/13 07:06:51;;;;;;;;;10.75;9.50;;;;;11.58;73.05;102291.97;4938377;28;45399;-56
2021/12/13 07:09:21;;;;;;;;;9.50;8.50;;;;;11.59;73.21;102293.72;4937352;28;45466;-55
2021/12/13 07:11:54;;;;;;;;;10.00;8.00;;;;;11.57;73.12;102290.22;4938048;28;47177;-56
2021/12/13 07:14:37;;;;;;;;;9.50;9.50;;;;;11.57;73.37;102296.44;4938546;28;45363;-55
2021/12/13 07:17:20;;;;;;;;;8.25;8.00;;;;;11.53;73.22;102292.09;4933322;28;45531;-58
2021/12/13 07:19:49;;;;;;;;;8.25;8.25;;;;;11.52;72.78;102294.81;4938090;28;45992;-57
2021/12/13 07:22:22;;;;;;;;;8.50;8.25;;;;;11.45;73.22;102293.19;4937777;28;46381;-56
2021/12/13 07:24:52;;;;;;;;;9.00;7.50;;;;;11.43;73.38;102300.41;4938476;28;45416;-55
2021/12/13 07:27:17;;;;;;;;;8.25;7.25;;;;;11.44;73.42;102292.31;4932480;28;45340;-55
2021/12/13 07:29:50;;;;;;;;;11.75;8.75;;;;;11.46;73.17;102298.53;4939407;28;45291;-51
2021/12/13 07:32:18;;;;;;;;;5.50;5.50;;;;;11.47;73.14;102294.94;4939630;28;46006;-54
2021/12/13 07:35:07;;;;;;;;;7.50;6.00;;;;;11.45;73.12;102293.19;4942837;28;45299;-52
2021/12/13 07:37:38;;;;;;;;;6.75;6.75;;;;;11.49;73.28;102295.75;4942981;28;45342;-54
2021/12/13 07:40:14;;;;;;;;;7.25;5.00;;;;;11.48;73.63;102306.56;4942776;28;45426;-56
2021/12/13 07:42:50;;;;;;;;;4.50;4.50;;;;;11.50;73.30;102307.38;4942932;28;46519;-55
2021/12/13 07:45:45;;;;;;;;;6.25;5.50;;;;;11.57;73.55;102315.25;4942841;28;45374;-55
2021/12/13 07:48:23;;;;;;;;;6.25;3.00;;;;;11.61;72.97;102316.06;4933910;28;45406;-51
2021/12/13 07:51:03;;;;;;;;;7.50;4.00;;;;;11.60;73.06;102315.19;4942502;28;45378;-57
2021/12/13 07:53:39;;;;;;;;;6.25;6.25;;;;;11.57;72.79;102317.94;4942579;28;45412;-55
2021/12/13 07:56:06;;;;;;;;;11.25;6.50;;;;;11.57;72.78;102315.25;4942566;28;45430;-56
2021/12/13 07:58:36;;;;;;;;;4.75;4.75;;;;;11.57;72.88;102312.56;4942690;28;45318;-56
2021/12/13 08:01:29;;;;;;;;;3.00;3.00;;;;;11.57;73.15;102304.50;4942359;28;47412;-55
2021/12/13 08:04:07;;;;;;;;;7.25;7.25;;;;;11.59;72.76;102307.16;4940658;28;45497;-54
2021/12/13 08:06:37;;;;;;;;;5.25;5.25;;;;;11.60;72.87;102303.56;4942567;28;45243;-54
2021/12/13 08:09:06;;;;;;;;;6.00;6.00;;;;;11.63;72.96;102307.06;4942489;28;45303;-54
2021/12/13 08:11:42;;;;;;;;;10.50;7.00;;;;;11.65;72.94;102309.72;4942290;28;45343;-55
2021/12/13 08:14:08;;;;;;;;;11.50;10.75;;;;;11.67;72.98;102311.41;4942215;28;46242;-56
2021/12/13 08:16:38;;;;;;;;;11.25;9.75;;;;;11.66;72.61;102304.28;4936660;28;45427;-57
2021/12/13 08:19:26;;;;;;;;;14.00;10.50;;;;;11.63;72.61;102311.53;4941896;28;45389;-57
2021/12/13 08:21:56;;;;;;;;;13.00;12.50;;;;;11.67;72.43;102313.22;4942321;28;45390;-56
2021/12/13 08:24:27;;;;;;;;;11.00;10.25;;;;;11.66;72.31;102317.69;4942510;28;45399;-56
2021/12/13 08:27:01;;;;;;;;;12.50;11.00;;;;;11.66;71.87;102319.50;4941907;28;45252;-58
2021/12/13 08:29:31;;;;;;;;;13.50;13.50;;;;;11.63;72.05;102314.22;4942220;28;45357;-55
2021/12/13 08:32:01;;;;;;;;;14.00;12.75;;;;;11.62;72.48;102309.78;4941730;28;46115;-54
2021/12/13 08:34:34;;;;;;;;;18.50;13.25;;;;;11.64;72.64;102327.63;4941921;28;45334;-55
2021/12/13 08:37:09;;;;;;;;;11.00;11.00;;;;;11.66;72.52;102316.81;4941948;28;45299;-54
2021/12/13 08:39:36;;;;;;;;;17.00;13.50;;;;;11.66;71.96;102320.38;4942455;28;45370;-56
2021/12/13 08:42:09;;;;;;;;;19.00;12.00;;;;;11.59;72.32;102316.09;4941942;28;45351;-56
2021/12/13 08:44:53;;;;;;;;;10.50;9.00;;;;;11.63;72.94;102312.44;4941465;28;46267;-54
2021/12/13 08:47:24;;;;;;;;;14.50;12.75;;;;;11.58;73.33;102322.38;4942020;28;45356;-57
2021/12/13 08:49:55;;;;;;;;;12.00;12.00;;;;;11.61;72.65;102326.81;4941645;28;45317;-56
2021/12/13 08:52:25;;;;;;;;;10.50;10.50;;;;;11.59;72.83;102324.16;4941889;28;45181;-55
2021/12/13 08:55:12;;;;;;;;;12.00;12.00;;;;;11.59;72.29;102321.47;4941617;28;46544;-55
2021/12/13 08:58:12;;;;;;;;;8.25;6.75;;;;;11.62;72.81;102313.34;4941793;28;45475;-57
2021/12/13 09:01:14;;;;;;;;;9.25;7.00;;;;;11.67;72.81;102321.28;4941587;28;45293;-55
2021/12/13 09:03:48;;;;;;;;;3.50;3.50;;;;;11.67;71.87;102319.47;4901248;29;45463;-56
2021/12/13 09:06:17;;;;;;;;;8.00;6.00;;;;;11.64;72.02;102322.25;4935336;28;46183;-55
2021/12/13 09:08:48;;;;;;;;;6.00;6.00;;;;;11.63;71.92;102331.22;4941710;28;45486;-55
2021/12/13 09:11:20;;;;;;;;;6.00;6.00;;;;;11.62;72.19;102340.22;4941328;28;45377;-54
2021/12/13 09:14:21;;;;;;;;;5.50;5.50;;;;;11.58;71.58;102343.00;4941559;28;46093;-54
2021/12/13 09:17:21;;;;;;;;;2.75;2.75;;;;;11.52;71.79;102329.72;4935972;28;45374;-54
2021/12/13 09:19:58;;;;;;;;;6.50;3.75;;;;;11.53;71.99;102340.44;4941135;28;45394;-51
2021/12/13 09:22:42;;;;;;;;;0.00;0.00;;;;;11.42;71.73;102329.06;4941374;28;45379;-56
2021/12/13 09:25:13;;;;;;;;;6.00;4.25;;;;;11.53;71.69;102339.53;4941173;28;45371;-55
2021/12/13 09:27:41;;;;;;;;;8.00;5.25;;;;;11.57;71.52;102347.47;4941167;28;46613;-55
2021/12/13 09:30:12;;;;;;;;;5.00;5.00;;;;;11.57;71.51;102355.53;4940963;28;45802;-54
2021/12/13 09:32:52;;;;;;;;;5.75;2.50;;;;;11.58;70.91;102356.41;4941314;28;45317;-54
2021/12/13 09:35:30;;;;;;;;;6.00;3.25;;;;;11.51;70.85;102347.63;4940821;28;45565;-54
2021/12/13 09:38:00;;;;;;;;;8.00;3.00;;;;;11.54;70.84;102352.94;4941057;28;46096;-55
2021/12/13 09:40:39;;;;;;;;;4.00;4.00;;;;;11.61;70.45;102348.31;4941292;28;45407;-55
2021/12/13 09:43:06;;;;;;;;;3.00;3.00;;;;;11.65;70.36;102337.44;4941137;28;45410;-56
2021/12/13 09:45:54;;;;;;;;;3.00;3.00;;;;;11.75;70.31;102355.13;4941195;28;45606;-57
2021/12/13 09:48:19;;;;;;;;;2.00;2.00;;;;;11.79;69.02;102344.31;4940967;28;46879;-54
2021/12/13 09:50:47;;;;;;;;;2.00;1.00;;;;;11.69;69.27;102336.44;4940833;28;45352;-56
2021/12/13 09:53:14;;;;;;;;;3.25;2.00;;;;;11.74;69.62;102339.91;4941109;28;45434;-55
2021/12/13 09:55:45;;;;;;;;;2.00;2.00;;;;;11.67;69.30;102322.16;4940640;28;46176;-53
2021/12/13 09:58:16;;;;;;;;;2.75;1.25;;;;;11.73;69.30;102346.22;4940441;28;46230;-56
2021/12/13 10:00:42;;;;;;;;;1.75;1.75;;;;;11.75;69.04;102347.06;4940893;28;45266;-56
2021/12/13 10:03:29;;;;;;;;;3.25;1.25;;;;;11.79;68.49;102350.56;4941178;28;45257;-54
2021/12/13 10:06:01;;;;;;;;;3.00;2.00;;;;;11.75;68.83;102349.75;4940636;28;45427;-57
2021/12/13 10:09:06;;;;;;;;;0.00;0.00;;;;;11.58;68.05;102329.56;4940729;28;46022;-55
2021/12/13 10:12:01;;;;;;;;;1.75;1.75;;;;;11.64;67.39;102349.13;4920615;28;45533;-56
2021/12/13 10:14:31;;;;;;;;;2.00;2.00;;;;;11.50;67.49;102342.28;4940834;28;45282;-56
2021/12/13 10:16:57;;;;;;;;;2.25;2.25;;;;;11.46;67.71;102330.75;4935656;28;45377;-51
2021/12/13 10:19:32;;;;;;;;;4.00;4.00;;;;;11.57;67.75;102349.31;4940594;28;45407;-54
2021/12/13 10:21:58;;;;;;;;;4.00;4.00;;;;;11.56;68.50;102342.16;4940842;28;45355;-57
2021/12/13 10:24:34;;;;;;;;;4.50;3.25;;;;;11.52;68.13;102333.28;4941074;28;45572;-55
2021/12/13 10:27:02;;;;;;;;;6.00;4.00;;;;;11.61;68.07;102338.44;4923791;28;45511;-55
2021/12/13 10:29:28;;;;;;;;;5.75;4.00;;;;;11.62;68.18;102340.22;4940532;28;47038;-55
2021/12/13 10:32:17;;;;;;;;;4.75;3.50;;;;;11.51;67.92;102315.41;4940119;28;45239;-53
2021/12/13 10:34:48;;;;;;;;;5.25;5.25;;;;;11.63;67.87;102333.91;4940554;28;45270;-54
2021/12/13 10:37:19;;;;;;;;;5.50;4.25;;;;;11.64;67.98;102327.63;4939325;28;45799;-54
2021/12/13 10:39:49;;;;;;;;;4.25;4.00;;;;;11.67;67.66;102330.22;4940613;28;45340;-55
2021/12/13 10:42:20;;;;;;;;;7.25;3.00;;;;;11.63;67.28;102341.97;4940511;28;45263;-54
2021/12/13 10:44:46;;;;;;;;;3.75;2.00;;;;;11.61;67.90;102327.69;4940386;28;45327;-54
2021/12/13 10:47:25;;;;;;;;;3.00;2.00;;;;;11.64;67.95;102337.50;4940329;28;45229;-54
2021/12/13 10:49:53;;;;;;;;;4.50;3.00;;;;;11.64;67.14;102334.81;4940090;28;47246;-53
2021/12/13 10:52:26;;;;;;;;;2.00;2.00;;;;;11.60;67.43;102333.97;4940345;28;45177;-56
2021/12/13 10:54:55;;;;;;;;;2.00;2.00;;;;;11.61;67.35;102334.88;4940421;28;45418;-54
2021/12/13 10:57:27;;;;;;;;;2.50;2.00;;;;;11.57;67.37;102335.88;4940224;28;45677;-56
2021/12/13 10:59:55;;;;;;;;;1.00;1.00;;;;;11.55;67.33;102330.53;4927713;28;45298;-54
2021/12/13 11:02:26;;;;;;;;;3.00;2.00;;;;;11.51;66.90;102336.91;4940059;28;45384;-52
2021/12/13 11:05:04;;;;;;;;;2.50;2.50;;;;;11.48;67.32;102333.41;4940039;28;45489;-53
2021/12/13 11:07:30;;;;;;;;;3.00;2.00;;;;;11.44;67.22;102329.03;4940574;28;45512;-54
2021/12/13 11:09:58;;;;;;;;;4.00;3.00;;;;;11.34;67.90;102339.09;4943703;28;45353;-55
2021/12/13 11:12:37;;;;;;;;;3.25;3.00;;;;;11.32;67.42;102336.44;4943160;28;45316;-56
2021/12/13 11:15:16;;;;;;;;;3.00;3.00;;;;;11.34;68.21;102323.00;4940009;28;45327;-57
2021/12/13 11:17:42;;;;;;;;;2.50;2.50;;;;;11.36;67.46;102326.53;4931185;28;45222;-56
2021/12/13 11:20:17;;;;;;;;;2.25;2.25;;;;;11.29;67.72;102322.22;4943230;28;45331;-56
2021/12/13 11:22:44;;;;;;;;;3.75;3.00;;;;;11.33;68.47;102329.28;4943543;28;45331;-55
2021/12/13 11:25:17;;;;;;;;;2.00;2.00;;;;;11.36;67.63;102337.28;4942112;28;45305;-53
2021/12/13 11:27:42;;;;;;;;;3.00;3.00;;;;;11.36;67.66;102330.09;4943308;28;45333;-56
2021/12/13 11:30:21;;;;;;;;;0.00;0.00;;;;;11.30;67.92;102321.31;4942847;28;46187;-52
2021/12/13 11:32:58;;;;;;;;;2.00;2.00;;;;;11.36;67.46;102329.22;4943267;28;45351;-51
2021/12/13 11:36:01;;;;;;;;;4.00;2.75;;;;;11.33;67.02;102331.97;4942896;28;45544;-54
2021/12/13 11:38:35;;;;;;;;;3.00;2.00;;;;;11.32;66.94;102327.50;4942937;28;45722;-53
2021/12/13 11:41:29;;;;;;;;;5.50;2.50;;;;;11.29;67.54;102325.81;4942845;28;46996;-54
2021/12/13 11:44:03;;;;;;;;;2.75;2.75;;;;;11.32;67.82;102319.44;4943119;28;45278;-54
2021/12/13 11:46:44;;;;;;;;;2.75;2.75;;;;;11.35;68.01;102322.06;4942644;28;45381;-55
2021/12/13 11:49:41;;;;;;;;;3.00;3.00;;;;;11.34;67.43;102314.94;4942524;28;45316;-53
2021/12/13 11:52:25;;;;;;;;;6.00;5.00;;;;;11.32;67.21;102317.66;4942739;28;46100;-54
2021/12/13 11:55:18;;;;;;;;;5.50;4.75;;;;;11.23;67.52;102309.81;4942628;28;45304;-54
2021/12/13 11:58:13;;;;;;;;;6.00;4.50;;;;;11.24;68.24;102310.69;4942698;28;45462;-53
2021/12/13 12:01:15;;;;;;;;;5.00;3.50;;;;;11.29;67.87;102298.94;4942612;28;45339;-54
2021/12/13 12:04:19;;;;;;;;;4.00;4.00;;;;;11.31;67.42;102291.72;4942923;28;45328;-54
2021/12/13 12:07:09;;;;;;;;;4.00;4.00;;;;;11.35;66.88;102284.47;4942620;28;45600;-54
2021/12/13 12:10:05;;;;;;;;;7.75;3.75;;;;;11.31;67.45;102278.28;4942806;28;45336;-54
2021/12/13 12:12:52;;;;;;;;;3.75;3.75;;;;;11.31;67.50;102285.50;4942456;28;45324;-53
2021/12/13 12:15:19;;;;;;;;;2.75;2.75;;;;;11.29;67.46;102284.66;4936782;28;46214;-54
2021/12/13 12:17:45;;;;;;;;;3.00;3.00;;;;;11.28;67.30;102275.69;4942711;28;45502;-53
2021/12/13 12:20:15;;;;;;;;;4.75;3.75;;;;;11.27;67.48;102273.94;4941375;28;45547;-53
2021/12/13 12:22:51;;;;;;;;;3.00;3.00;;;;;11.30;67.71;102287.28;4942652;28;45398;-55
2021/12/13 12:25:20;;;;;;;;;6.75;3.00;;;;;11.32;67.14;102281.88;4942387;28;46185;-52
2021/12/13 12:27:46;;;;;;;;;5.00;5.00;;;;;11.31;67.58;102278.28;4942560;28;45253;-55
2021/12/13 12:30:17;;;;;;;;;5.50;5.50;;;;;11.31;67.13;102269.38;4942232;28;45482;-54
2021/12/13 12:32:55;;;;;;;;;5.00;5.00;;;;;11.31;67.44;102274.75;4942122;28;45225;-55
2021/12/13 12:35:43;;;;;;;;;5.00;5.00;;;;;11.26;67.31;102263.22;4929158;28;46271;-51
2021/12/13 12:38:24;;;;;;;;;6.00;4.00;;;;;11.27;67.64;102273.94;4942098;28;45343;-54
2021/12/13 12:40:57;;;;;;;;;4.50;4.00;;;;;11.24;67.55;102265.94;4942480;28;45244;-53
2021/12/13 12:43:25;;;;;;;;;6.25;4.00;;;;;11.27;67.48;102281.09;4942120;28;45312;-52
2021/12/13 12:45:54;;;;;;;;;5.00;4.00;;;;;11.26;67.76;102273.97;4942235;28;46136;-54
2021/12/13 12:48:24;;;;;;;;;5.00;5.00;;;;;11.22;67.89;102277.66;4942185;28;45350;-53
2021/12/13 12:50:59;;;;;;;;;5.00;5.00;;;;;11.20;68.19;102279.50;4941780;28;45327;-52
2021/12/13 12:53:35;;;;;;;;;6.75;6.75;;;;;11.16;68.26;102270.63;4941769;28;46059;-53
2021/12/13 12:56:06;;;;;;;;;3.50;3.50;;;;;11.18;67.88;102274.16;4941913;28;45450;-54
2021/12/13 12:58:46;;;;;;;;;5.25;5.25;;;;;11.19;68.29;102269.66;4941970;28;45255;-54
2021/12/13 13:01:22;;;;;;;;;7.50;5.25;;;;;11.15;67.95;102273.34;4941796;28;45455;-54
2021/12/13 13:03:48;;;;;;;;;8.00;6.50;;;;;11.15;68.56;102278.69;4941701;28;45355;-53
2021/12/13 13:06:21;;;;;;;;;8.50;8.50;;;;;11.14;68.33;102272.47;4941651;28;46238;-54
2021/12/13 13:08:50;;;;;;;;;6.25;5.50;;;;;11.14;68.24;102277.84;4941795;28;45359;-54
2021/12/13 13:13:50;;;;;;;;;12.00;9.00;;;;;11.12;68.64;102273.44;4941409;28;45221;-54
2021/12/13 13:16:18;;;;;;;;;8.75;8.75;;;;;11.13;68.62;102269.81;4936187;28;46335;-54
2021/12/13 13:18:44;;;;;;;;;9.00;9.00;;;;;11.08;68.54;102259.19;4941335;28;45411;-55
2021/12/13 13:21:10;;;;;;;;;9.00;9.00;;;;;11.08;68.65;102263.66;4941750;28;45255;-51
2021/12/13 13:23:44;;;;;;;;;7.00;7.00;;;;;11.02;69.04;102251.28;4941532;28;45575;-53
2021/12/13 13:26:11;;;;;;;;;11.00;9.00;;;;;11.03;69.15;102262.91;4941625;28;46260;-53
2021/12/13 13:28:44;;;;;;;;;10.25;7.50;;;;;11.05;69.11;102258.41;4940995;28;45437;-53
2021/12/13 13:31:27;;;;;;;;;9.25;7.50;;;;;11.06;69.28;102255.66;4941050;28;45279;-54
2021/12/13 13:34:02;;;;;;;;;8.75;7.00;;;;;10.95;68.40;102241.63;4940827;28;45517;-56
2021/12/13 13:36:39;;;;;;;;;9.75;9.00;;;;;11.02;68.89;102262.03;4941282;28;45323;-54
2021/12/13 13:39:22;;;;;;;;;8.25;8.25;;;;;11.03;68.80;102268.28;4941385;28;45274;-56
2021/12/13 13:42:17;;;;;;;;;11.00;10.00;;;;;11.02;68.99;102261.13;4941385;28;45320;-54
2021/12/13 13:44:51;;;;;;;;;7.50;7.25;;;;;11.04;68.98;102268.25;4939048;28;46035;-54
2021/12/13 13:47:26;;;;;;;;;7.00;7.00;;;;;11.02;68.76;102283.50;4940521;28;46436;-53
2021/12/13 13:49:52;;;;;;;;;7.00;5.75;;;;;11.03;69.19;102284.38;4938636;28;45379;-53
2021/12/13 13:52:24;;;;;;;;;6.75;6.00;;;;;11.00;69.07;102288.00;4941272;28;45221;-55
2021/12/13 13:54:54;;;;;;;;;13.00;9.50;;;;;11.00;69.09;102293.38;4940809;28;45499;-57
2021/12/13 13:57:26;;;;;;;;;8.25;6.25;;;;;10.96;69.32;102280.97;4939556;28;47346;-50
2021/12/13 13:59:52;;;;;;;;;10.00;8.50;;;;;11.01;69.27;102289.78;4940701;28;45399;-55
2021/12/13 14:02:24;;;;;;;;;9.25;8.50;;;;;10.95;68.67;102285.44;4941254;28;45241;-51
2021/12/13 14:04:56;;;;;;;;;9.50;9.00;;;;;10.89;68.97;102296.28;4940938;28;45318;-53
2021/12/13 14:07:27;;;;;;;;;6.25;6.25;;;;;10.87;69.45;102283.84;4940908;28;45390;-55
2021/12/13 14:09:59;;;;;;;;;6.00;6.00;;;;;10.87;69.06;102286.53;4941230;28;45358;-54
2021/12/13 14:12:28;;;;;;;;;10.00;8.50;;;;;10.84;69.50;102279.41;4940808;28;45335;-54
2021/12/13 14:14:59;;;;;;;;;6.00;6.00;;;;;10.84;69.66;102286.59;4938515;28;45992;-54
2021/12/13 14:17:39;;;;;;;;;8.50;7.50;;;;;10.80;69.92;102282.22;4938827;28;47407;-53
2021/12/13 14:20:18;;;;;;;;;12.50;10.50;;;;;10.82;69.48;102278.56;4940503;28;45344;-53
2021/12/13 14:22:45;;;;;;;;;11.75;10.00;;;;;10.79;69.80;102281.34;4939525;28;45330;-51
2021/12/13 14:25:10;;;;;;;;;12.00;10.50;;;;;10.82;69.70;102278.56;4940276;28;45805;-54
2021/12/13 14:27:36;;;;;;;;;9.25;8.25;;;;;10.84;69.47;102294.63;4940812;28;45275;-52
2021/12/13 14:30:17;;;;;;;;;12.00;10.00;;;;;10.85;69.37;102286.56;4940238;28;45267;-53
2021/12/13 14:32:43;;;;;;;;;9.25;6.00;;;;;10.86;69.44;102282.06;4940679;28;45323;-54
2021/12/13 14:35:20;;;;;;;;;9.75;8.25;;;;;10.83;69.69;102287.50;4938935;28;45454;-55
2021/12/13 14:37:47;;;;;;;;;11.25;9.00;;;;;10.84;69.44;102286.59;4940440;28;46203;-51
2021/12/13 14:40:14;;;;;;;;;8.00;8.00;;;;;10.83;69.61;102277.66;4940043;28;45297;-51
2021/12/13 14:42:40;;;;;;;;;10.25;9.75;;;;;10.81;69.42;102281.28;4941159;28;45330;-55
2021/12/13 14:45:10;;;;;;;;;10.50;10.50;;;;;10.79;69.57;102281.34;4943584;28;45256;-53
2021/12/13 14:47:49;;;;;;;;;10.50;9.00;;;;;10.78;69.98;102279.56;4943478;28;46368;-51
2021/12/13 14:50:17;;;;;;;;;13.25;11.00;;;;;10.76;69.90;102286.75;4943637;28;45249;-55
2021/12/13 14:52:52;;;;;;;;;5.50;5.50;;;;;10.75;69.44;102276.06;4943696;28;45368;-53
2021/12/13 14:55:25;;;;;;;;;10.75;9.25;;;;;10.73;69.56;102281.44;4943538;28;45422;-53
2021/12/13 14:58:06;;;;;;;;;8.25;8.00;;;;;10.71;69.72;102294.03;4943404;28;45264;-57
2021/12/13 15:00:36;;;;;;;;;9.25;8.00;;;;;10.72;70.08;102285.03;4943480;28;45310;-53
2021/12/13 15:03:07;;;;;;;;;12.75;11.75;;;;;10.67;70.27;102283.41;4943564;28;45398;-51
2021/12/13 15:05:36;;;;;;;;;15.00;12.00;;;;;10.61;70.33;102279.94;4943015;28;45481;-55
2021/12/13 15:08:06;;;;;;;;;14.25;13.00;;;;;10.57;70.24;102274.66;4943248;28;46184;-52
2021/12/13 15:10:47;;;;;;;;;10.50;10.50;;;;;10.50;70.63;102281.97;4942942;28;45326;-51
2021/12/13 15:13:15;;;;;;;;;20.75;13.50;;;;;10.50;70.73;102283.75;4943351;28;45362;-51
2021/12/13 15:15:53;;;;;;;;;16.00;10.50;;;;;10.53;71.10;102281.03;4937779;28;46174;-51
2021/12/13 15:18:35;;;;;;;;;18.75;12.00;;;;;10.55;70.75;102290.78;4943146;28;47098;-52
2021/12/13 15:21:05;;;;;;;;;11.00;9.00;;;;;10.58;71.06;102285.34;4942867;28;45442;-52
2021/12/13 15:23:33;;;;;;;;;12.00;11.00;;;;;10.58;71.12;102285.34;4943047;28;45403;-54
2021/12/13 15:26:09;;;;;;;;;13.50;11.50;;;;;10.61;70.76;102282.63;4942986;28;45350;-54
2021/12/13 15:28:44;;;;;;;;;17.25;13.50;;;;;10.64;70.72;102284.34;4942900;28;45359;-52
2021/12/13 15:31:23;;;;;;;;;10.50;10.25;;;;;10.68;70.64;102291.41;4935403;28;46270;-54
2021/12/13 15:33:52;;;;;;;;;13.50;10.25;;;;;10.66;70.70;102289.66;4942794;28;45412;-54
2021/12/13 15:36:20;;;;;;;;;18.00;15.50;;;;;10.63;70.79;102282.59;4942977;28;45366;-53
2021/12/13 15:38:47;;;;;;;;;11.50;11.00;;;;;10.63;70.82;102270.97;4943130;28;47197;-53
2021/12/13 15:41:18;;;;;;;;;11.75;11.00;;;;;10.70;70.36;102272.59;4942960;28;45426;-55
2021/12/13 15:43:47;;;;;;;;;11.00;8.50;;;;;10.71;70.61;102279.75;4943184;28;45393;-53
2021/12/13 15:46:16;;;;;;;;;15.00;12.75;;;;;10.69;70.19;102281.56;4942657;28;45378;-55
2021/12/13 15:51:37;;;;;;;;;18.75;14.50;;;;;10.71;70.12;102277.94;4942793;28;45371;-55
2021/12/13 15:54:07;;;;;;;;;11.75;9.00;;;;;10.66;70.74;102274.47;4942864;28;45350;-52
2021/12/13 15:56:36;;;;;;;;;15.50;14.25;;;;;10.65;70.20;102277.16;4942629;28;45189;-53
2021/12/13 15:59:15;;;;;;;;;15.50;13.50;;;;;10.63;70.77;102279.91;4942626;28;46124;-52
2021/12/13 16:01:50;;;;;;;;;20.50;15.25;;;;;10.55;71.01;102269.31;4942659;28;45438;-53
2021/12/13 16:04:27;;;;;;;;;11.00;11.00;;;;;10.51;71.28;102272.13;4942702;28;45379;-54
2021/12/13 16:06:55;;;;;;;;;14.75;13.75;;;;;10.47;71.07;102273.09;4942696;28;45380;-53
2021/12/13 16:09:28;;;;;;;;;19.75;15.00;;;;;10.40;71.96;102279.50;4942419;28;46165;-56
2021/12/13 16:12:00;;;;;;;;;22.75;18.25;;;;;10.29;72.01;102260.97;4942503;28;45339;-54
2021/12/13 16:14:28;;;;;;;;;19.25;13.25;;;;;10.36;72.13;102280.50;4942702;28;45400;-56
2021/12/13 16:17:17;;;;;;;;;16.50;13.50;;;;;10.42;72.23;102281.25;4936769;28;45516;-56
2021/12/13 16:19:48;;;;;;;;;21.00;15.50;;;;;10.45;71.97;102274.94;4942281;28;45349;-55
2021/12/13 16:22:44;;;;;;;;;19.25;16.25;;;;;10.48;71.93;102273.06;4942333;28;45375;-54
2021/12/13 16:25:28;;;;;;;;;27.50;18.00;;;;;10.48;71.75;102282.91;4942104;28;45370;-53
2021/12/13 16:28:03;;;;;;;;;17.25;15.25;;;;;10.38;72.28;102284.88;4942120;28;45965;-54
2021/12/13 16:30:31;;;;;;;;;15.50;13.75;;;;;10.45;71.90;102286.53;4940923;28;46187;-52
2021/12/13 16:33:00;;;;;;;;;23.00;17.00;;;;;10.47;72.02;102283.81;4941392;28;45666;-52
2021/12/13 16:35:28;;;;;;;;;17.00;13.50;;;;;10.49;71.92;102290.91;4941929;28;45323;-55
2021/12/13 16:37:56;;;;;;;;;19.75;15.25;;;;;10.51;71.70;102285.53;4942073;28;45324;-53
2021/12/13 16:40:24;;;;;;;;;18.00;17.00;;;;;10.50;72.08;102295.38;4941711;28;46091;-53
2021/12/13 16:43:00;;;;;;;;;19.25;17.00;;;;;10.50;71.45;102298.03;4942115;28;45426;-53
2021/12/13 16:45:28;;;;;;;;;15.75;14.00;;;;;10.48;71.64;102293.63;4941880;28;45387;-52
2021/12/13 16:47:54;;;;;;;;;13.75;12.25;;;;;10.44;71.62;102299.97;4942035;28;45186;-54
2021/12/13 16:50:21;;;;;;;;;16.75;14.00;;;;;10.43;71.66;102306.25;4941617;28;45298;-54
2021/12/13 16:52:52;;;;;;;;;17.75;15.50;;;;;10.44;71.73;102291.94;4941880;28;45184;-52
2021/12/13 16:55:18;;;;;;;;;15.50;15.00;;;;;10.42;71.78;102289.28;4942072;28;45426;-52
2021/12/13 16:57:48;;;;;;;;;14.25;12.50;;;;;10.48;71.68;102301.66;4941361;28;45343;-54
2021/12/13 17:00:22;;;;;;;;;18.00;13.50;;;;;10.49;71.57;102307.00;4941622;28;47143;-53
2021/12/13 17:02:49;;;;;;;;;18.00;15.00;;;;;10.50;71.81;102305.19;4941667;28;45415;-52
2021/12/13 17:05:23;;;;;;;;;17.25;15.25;;;;;10.50;71.95;102308.78;4940897;28;45594;-54
2021/12/13 17:07:52;;;;;;;;;11.50;10.50;;;;;10.53;71.71;102310.53;4941727;28;45319;-53
2021/12/13 17:10:34;;;;;;;;;14.50;14.50;;;;;10.53;71.56;102310.53;4941783;28;47014;-54
2021/12/13 17:13:10;;;;;;;;;16.25;16.25;;;;;10.54;71.50;102317.66;4941685;28;45332;-54
2021/12/13 17:15:44;;;;;;;;;19.75;17.50;;;;;10.48;72.09;102315.97;4936639;28;45668;-53
2021/12/13 17:18:34;;;;;;;;;19.00;18.50;;;;;10.44;71.65;102311.59;4941591;28;45295;-53
2021/12/13 17:21:21;;;;;;;;;18.75;16.00;;;;;10.41;72.46;102311.63;4941515;28;45444;-54
2021/12/13 17:23:54;;;;;;;;;24.00;18.25;;;;;10.44;72.65;102319.63;4941506;28;45550;-54
2021/12/13 17:27:04;;;;;;;;;20.50;17.25;;;;;10.47;71.74;102324.03;4941849;28;45391;-54
2021/12/13 17:29:31;;;;;;;;;21.75;17.25;;;;;10.47;72.38;102315.97;4931844;28;45431;-55